createdAt,value
2018-11-23T00:10:04.704Z,88.16
2018-11-23T00:20:23.762Z,88.35
2018-11-23T00:30:42.098Z,88.39
2018-11-23T00:41:00.583Z,87.92
2018-11-23T00:51:18.573Z,87.83
2018-11-23T01:01:54.510Z,87.70
2018-11-23T01:12:12.405Z,87.38
2018-11-23T01:22:30.582Z,86.71
2018-11-23T01:32:49.318Z,86.60
2018-11-23T01:43:07.797Z,86.43
2018-11-23T01:53:26.037Z,86.51
2018-11-23T02:03:43.800Z,86.63
2018-11-23T02:14:01.784Z,86.74
2018-11-23T02:24:19.769Z,86.77
2018-11-23T02:34:38.639Z,86.58
2018-11-23T02:44:56.823Z,87.36
2018-11-23T02:55:16.590Z,87.38
2018-11-23T03:05:35.231Z,87.82
2018-11-23T03:15:52.984Z,87.77
2018-11-23T03:26:10.818Z,87.49
2018-11-23T03:36:28.887Z,87.55
2018-11-23T03:46:47.117Z,87.79
2018-11-23T03:57:05.285Z,88.49
2018-11-23T04:07:24.933Z,89.09
2018-11-23T04:17:43.479Z,89.17
2018-11-23T04:28:01.825Z,89.18
2018-11-23T04:38:19.830Z,89.26
2018-11-23T04:48:37.719Z,89.18
2018-11-23T04:58:56.046Z,89.13
2018-11-23T05:09:14.330Z,89.08
2018-11-23T05:19:32.350Z,88.82
2018-11-23T05:29:50.273Z,88.55
2018-11-23T05:40:10.006Z,88.36
2018-11-23T05:50:27.829Z,88.35
2018-11-23T06:00:46.204Z,88.11
2018-11-23T06:11:04.009Z,88.31
2018-11-23T06:21:21.894Z,88.60
2018-11-23T06:31:39.855Z,89.11
2018-11-23T06:41:58.113Z,89.28
2018-11-23T06:52:16.514Z,88.66
2018-11-23T07:02:34.482Z,88.31
2018-11-23T07:12:52.426Z,88.43
2018-11-23T07:23:10.412Z,88.09
2018-11-23T07:33:28.504Z,87.46
2018-11-23T07:43:46.667Z,86.53
2018-11-23T07:54:04.651Z,85.36
2018-11-23T08:04:23.543Z,84.39
2018-11-23T08:14:42.057Z,84.26
2018-11-23T08:25:00.799Z,83.77
2018-11-23T08:35:18.592Z,83.64
2018-11-23T08:45:36.922Z,84.31
2018-11-23T08:55:54.463Z,83.02
2018-11-23T09:06:12.732Z,81.59
2018-11-23T09:16:30.762Z,81.84
2018-11-23T09:26:49.035Z,82.69
2018-11-23T09:37:06.874Z,82.77
2018-11-23T09:47:24.799Z,82.07
2018-11-23T09:57:42.777Z,81.25
2018-11-23T10:08:08.178Z,81.09
2018-11-23T10:18:26.045Z,81.48
2018-11-23T10:28:44.180Z,81.23
2018-11-23T10:39:01.963Z,81.67
2018-11-23T10:49:20.330Z,80.52
2018-11-23T10:59:38.261Z,79.67
2018-11-23T11:09:56.382Z,79.10
2018-11-23T11:20:14.475Z,79.69
2018-11-23T11:30:32.741Z,78.50
2018-11-23T11:40:50.564Z,78.66
2018-11-23T11:51:09.722Z,79.65
2018-11-23T12:01:27.894Z,78.87
2018-11-23T12:11:45.963Z,78.69
2018-11-23T12:22:04.710Z,78.27
2018-11-23T12:32:22.011Z,78.89
2018-11-23T12:42:40.657Z,78.74
2018-11-23T12:53:05.806Z,78.41
2018-11-23T13:03:16.594Z,78.29
2018-11-23T13:13:34.647Z,79.19
2018-11-23T13:23:52.432Z,78.29
2018-11-23T13:34:10.392Z,78.93
2018-11-23T13:44:28.475Z,79.29
2018-11-23T13:54:47.079Z,80.15
2018-11-23T14:05:07.006Z,80.17
2018-11-23T14:15:25.998Z,80.01
2018-11-23T14:25:43.776Z,79.69
2018-11-23T14:36:01.878Z,80.77
2018-11-23T14:46:20.012Z,81.77
2018-11-23T14:56:37.970Z,81.84
2018-11-23T15:06:55.886Z,81.80
2018-11-23T15:17:14.066Z,81.56
2018-11-23T15:27:32.165Z,81.70
2018-11-23T15:37:50.168Z,82.27
2018-11-23T15:48:08.832Z,82.82
2018-11-23T15:58:27.565Z,82.92
2018-11-23T16:08:45.547Z,83.98
2018-11-23T16:19:03.786Z,83.90
2018-11-23T16:29:21.362Z,84.08
2018-11-23T16:39:39.636Z,84.05
2018-11-23T16:49:57.812Z,84.22
2018-11-23T17:00:21.244Z,84.66
2018-11-23T17:10:38.901Z,84.76
2018-11-23T17:20:59.246Z,84.52
2018-11-23T17:31:14.679Z,84.47
2018-11-23T17:41:32.613Z,84.75
2018-11-23T17:51:50.619Z,84.89
2018-11-23T18:02:08.717Z,84.94
2018-11-23T18:12:26.909Z,84.85
2018-11-23T18:22:45.475Z,85.09
2018-11-23T18:33:04.578Z,85.07
2018-11-23T18:43:22.433Z,84.13
2018-11-23T18:53:40.539Z,85.11
2018-11-23T19:03:58.582Z,85.72
2018-11-23T19:14:16.603Z,85.37
2018-11-23T19:24:34.632Z,85.14
2018-11-23T19:34:52.831Z,84.80
2018-11-23T19:45:17.408Z,85.05
2018-11-23T19:55:36.316Z,85.21
2018-11-23T20:05:54.785Z,85.57
2018-11-23T20:16:12.471Z,85.65
2018-11-23T20:26:31.365Z,85.86
2018-11-23T20:36:49.445Z,85.70
2018-11-23T20:47:07.637Z,86.00
2018-11-23T20:57:25.961Z,85.72
2018-11-23T21:07:44.916Z,86.03
2018-11-23T21:18:04.245Z,85.81
2018-11-23T21:28:22.056Z,85.77
2018-11-23T21:38:40.123Z,85.99
2018-11-23T21:48:58.222Z,86.00
2018-11-23T21:59:15.972Z,85.94
2018-11-23T22:09:34.187Z,85.77
2018-11-23T22:19:52.124Z,85.47
2018-11-23T22:30:23.415Z,85.74
2018-11-23T22:40:41.169Z,85.52
2018-11-23T22:50:59.150Z,85.48
2018-11-23T23:01:17.326Z,85.51
2018-11-23T23:11:35.110Z,85.03
2018-11-23T23:21:53.025Z,85.18
2018-11-23T23:32:10.913Z,85.72
2018-11-23T23:42:28.916Z,85.86
2018-11-23T23:52:46.947Z,85.58
